sensor_id;sensor_type;location;lat;lon;timestamp;pressure;altitude;pressure_sealevel;temperature;humidity
63654;BME280;49809;47.418;19.080;2022-10-22T00:02:15;100589.59;;;9.85;75.84
63654;BME280;49809;47.418;19.080;2022-10-22T00:25:52;100567.16;;;9.87;75.75
63654;BME280;49809;47.418;19.080;2022-10-22T00:32:58;100582.53;;;9.90;76.04
63654;BME280;49809;47.418;19.080;2022-10-22T00:53:23;100554.56;;;9.94;75.94
63654;BME280;49809;47.418;19.080;2022-10-22T01:01:04;100558.16;;;9.88;76.47
63654;BME280;49809;47.418;19.080;2022-10-22T01:05:05;100559.56;;;9.91;76.47
63654;BME280;49809;47.418;19.080;2022-10-22T01:09:52;100551.22;;;9.82;77.23
63654;BME280;49809;47.418;19.080;2022-10-22T01:36:17;100559.34;;;9.64;78.59
63654;BME280;49809;47.418;19.080;2022-10-22T01:40:31;100551.81;;;9.56;79.22
63654;BME280;49809;47.418;19.080;2022-10-22T02:08:26;100547.47;;;9.50;80.48
63654;BME280;49809;47.418;19.080;2022-10-22T02:19:53;100541.06;;;9.29;81.96
63654;BME280;49809;47.418;19.080;2022-10-22T02:24:01;100521.66;;;9.24;82.71
63654;BME280;49809;47.418;19.080;2022-10-22T02:44:35;100531.25;;;9.01;84.45
63654;BME280;49809;47.418;19.080;2022-10-22T02:52:33;100547.72;;;8.92;84.05
63654;BME280;49809;47.418;19.080;2022-10-22T02:57:14;100562.63;;;8.86;83.81
63654;BME280;49809;47.418;19.080;2022-10-22T03:05:06;100560.97;;;8.57;84.97
63654;BME280;49809;47.418;19.080;2022-10-22T03:12:23;100560.44;;;8.32;87.08
63654;BME280;49809;47.418;19.080;2022-10-22T03:28:37;100552.69;;;7.83;90.09
63654;BME280;49809;47.418;19.080;2022-10-22T03:32:21;100539.47;;;7.72;90.35
63654;BME280;49809;47.418;19.080;2022-10-22T03:39:42;100530.09;;;7.64;91.35
63654;BME280;49809;47.418;19.080;2022-10-22T03:52:14;100534.09;;;7.67;91.49
63654;BME280;49809;47.418;19.080;2022-10-22T04:00:44;100506.00;;;7.61;91.61
63654;BME280;49809;47.418;19.080;2022-10-22T04:17:17;100531.41;;;7.43;92.84
63654;BME280;49809;47.418;19.080;2022-10-22T04:28:33;100526.13;;;7.43;93.38
63654;BME280;49809;47.418;19.080;2022-10-22T04:43:54;100522.09;;;7.41;95.34
63654;BME280;49809;47.418;19.080;2022-10-22T04:51:58;100526.06;;;7.32;95.57
63654;BME280;49809;47.418;19.080;2022-10-22T04:55:51;100526.75;;;7.27;95.20
63654;BME280;49809;47.418;19.080;2022-10-22T04:59:43;100526.88;;;7.21;95.26
63654;BME280;49809;47.418;19.080;2022-10-22T05:20:05;100521.84;;;7.01;97.41
63654;BME280;49809;47.418;19.080;2022-10-22T05:24:04;100522.66;;;7.02;97.60
63654;BME280;49809;47.418;19.080;2022-10-22T05:27:54;100518.19;;;7.02;97.33
63654;BME280;49809;47.418;19.080;2022-10-22T05:35:48;100536.31;;;7.10;97.12
63654;BME280;49809;47.418;19.080;2022-10-22T05:51:04;100515.00;;;7.41;96.74
63654;BME280;49809;47.418;19.080;2022-10-22T06:08:59;100543.38;;;7.81;96.08
63654;BME280;49809;47.418;19.080;2022-10-22T06:13:25;100550.41;;;7.87;95.81
63654;BME280;49809;47.418;19.080;2022-10-22T06:28:42;100579.34;;;8.40;94.17
63654;BME280;49809;47.418;19.080;2022-10-22T06:32:48;100563.59;;;8.57;93.84
63654;BME280;49809;47.418;19.080;2022-10-22T06:36:22;100579.87;;;8.77;92.73
63654;BME280;49809;47.418;19.080;2022-10-22T06:40:31;100580.78;;;8.94;92.07
63654;BME280;49809;47.418;19.080;2022-10-22T06:44:49;100578.66;;;9.20;90.89
63654;BME280;49809;47.418;19.080;2022-10-22T06:52:48;100593.66;;;9.92;86.95
63654;BME280;49809;47.418;19.080;2022-10-22T06:56:18;100588.72;;;10.46;84.96
63654;BME280;49809;47.418;19.080;2022-10-22T07:15:05;100588.31;;;11.68;74.84
63654;BME280;49809;47.418;19.080;2022-10-22T07:22:32;100578.66;;;11.84;71.37
63654;BME280;49809;47.418;19.080;2022-10-22T07:29:34;100579.37;;;11.47;72.52
63654;BME280;49809;47.418;19.080;2022-10-22T07:33:19;100571.84;;;11.39;73.83
63654;BME280;49809;47.418;19.080;2022-10-22T07:36:53;100570.66;;;11.25;74.47
63654;BME280;49809;47.418;19.080;2022-10-22T07:40:48;100558.44;;;11.24;73.97
63654;BME280;49809;47.418;19.080;2022-10-22T07:44:38;100566.91;;;11.21;73.42
63654;BME280;49809;47.418;19.080;2022-10-22T07:52:57;100560.66;;;11.32;73.46
63654;BME280;49809;47.418;19.080;2022-10-22T07:56:59;100571.22;;;11.27;72.68
63654;BME280;49809;47.418;19.080;2022-10-22T08:00:39;100569.72;;;11.36;72.90
63654;BME280;49809;47.418;19.080;2022-10-22T08:04:30;100582.75;;;11.43;71.96
63654;BME280;49809;47.418;19.080;2022-10-22T08:08:08;100576.59;;;11.64;70.91
63654;BME280;49809;47.418;19.080;2022-10-22T08:11:40;100572.06;;;11.59;70.34
63654;BME280;49809;47.418;19.080;2022-10-22T08:14:58;100561.84;;;12.00;69.91
63654;BME280;49809;47.418;19.080;2022-10-22T08:18:24;100575.72;;;12.12;69.42
63654;BME280;49809;47.418;19.080;2022-10-22T08:21:51;100573.19;;;12.32;69.69
63654;BME280;49809;47.418;19.080;2022-10-22T08:25:42;100570.69;;;12.52;68.44
63654;BME280;49809;47.418;19.080;2022-10-22T08:29:29;100569.37;;;12.60;67.91
63654;BME280;49809;47.418;19.080;2022-10-22T08:32:59;100567.16;;;12.99;68.11
63654;BME280;49809;47.418;19.080;2022-10-22T08:36:22;100565.19;;;13.41;65.68
63654;BME280;49809;47.418;19.080;2022-10-22T08:39:48;100567.66;;;13.88;64.14
63654;BME280;49809;47.418;19.080;2022-10-22T08:47:46;100573.66;;;14.70;59.86
63654;BME280;49809;47.418;19.080;2022-10-22T08:51:37;100574.19;;;14.67;59.67
63654;BME280;49809;47.418;19.080;2022-10-22T08:55:24;100568.03;;;14.76;60.35
63654;BME280;49809;47.418;19.080;2022-10-22T08:59:22;100580.75;;;15.00;61.00
63654;BME280;49809;47.418;19.080;2022-10-22T09:03:22;100575.22;;;15.35;60.52
63654;BME280;49809;47.418;19.080;2022-10-22T09:07:07;100566.72;;;15.33;60.33
63654;BME280;49809;47.418;19.080;2022-10-22T09:11:02;100563.72;;;15.40;59.57
63654;BME280;49809;47.418;19.080;2022-10-22T09:14:30;100570.22;;;15.29;61.32
63654;BME280;49809;47.418;19.080;2022-10-22T09:19:02;100568.06;;;15.31;60.74
63654;BME280;49809;47.418;19.080;2022-10-22T09:26:56;100564.56;;;15.35;58.05
63654;BME280;49809;47.418;19.080;2022-10-22T09:31:15;100565.53;;;15.88;59.51
63654;BME280;49809;47.418;19.080;2022-10-22T09:35:29;100569.31;;;15.87;58.28
63654;BME280;49809;47.418;19.080;2022-10-22T09:39:46;100570.84;;;15.93;58.65
63654;BME280;49809;47.418;19.080;2022-10-22T09:44:13;100580.94;;;16.01;59.61
63654;BME280;49809;47.418;19.080;2022-10-22T09:48:50;100591.75;;;15.86;59.05
63654;BME280;49809;47.418;19.080;2022-10-22T09:52:42;100582.59;;;15.58;60.00
63654;BME280;49809;47.418;19.080;2022-10-22T09:57:51;100574.16;;;15.80;59.32
63654;BME280;49809;47.418;19.080;2022-10-22T10:02:18;100572.53;;;15.84;59.29
63654;BME280;49809;47.418;19.080;2022-10-22T10:06:53;100576.97;;;15.94;59.07
63654;BME280;49809;47.418;19.080;2022-10-22T10:15:02;100557.28;;;16.19;58.82
63654;BME280;49809;47.418;19.080;2022-10-22T10:19:19;100561.84;;;16.42;58.03
63654;BME280;49809;47.418;19.080;2022-10-22T10:23:29;100549.13;;;16.34;58.32
63654;BME280;49809;47.418;19.080;2022-10-22T10:27:47;100549.81;;;16.44;59.41
63654;BME280;49809;47.418;19.080;2022-10-22T10:32:05;100560.47;;;16.73;58.97
63654;BME280;49809;47.418;19.080;2022-10-22T10:39:44;100549.97;;;16.53;59.39
63654;BME280;49809;47.418;19.080;2022-10-22T10:44:03;100544.97;;;16.46;60.50
63654;BME280;49809;47.418;19.080;2022-10-22T11:00:55;100567.81;;;16.34;61.01
63654;BME280;49809;47.418;19.080;2022-10-22T11:08:51;100565.50;;;16.22;60.79
63654;BME280;49809;47.418;19.080;2022-10-22T11:12:43;100564.12;;;16.30;60.51
63654;BME280;49809;47.418;19.080;2022-10-22T11:16:37;100565.03;;;16.20;60.79
63654;BME280;49809;47.418;19.080;2022-10-22T11:25:13;100547.91;;;15.92;62.71
63654;BME280;49809;47.418;19.080;2022-10-22T11:29:00;100546.50;;;16.29;61.42
63654;BME280;49809;47.418;19.080;2022-10-22T11:32:52;100543.66;;;16.44;61.84
63654;BME280;49809;47.418;19.080;2022-10-22T11:37:02;100526.81;;;16.20;61.91
63654;BME280;49809;47.418;19.080;2022-10-22T11:41:00;100527.94;;;16.14;61.80
63654;BME280;49809;47.418;19.080;2022-10-22T11:45:56;100529.69;;;16.76;61.17
63654;BME280;49809;47.418;19.080;2022-10-22T11:51:27;100519.09;;;16.89;60.00
63654;BME280;49809;47.418;19.080;2022-10-22T12:13:31;100512.22;;;17.39;59.75
63654;BME280;49809;47.418;19.080;2022-10-22T12:17:13;100504.06;;;17.31;59.38
63654;BME280;49809;47.418;19.080;2022-10-22T12:21:02;100494.34;;;17.54;59.66
63654;BME280;49809;47.418;19.080;2022-10-22T12:25:18;100494.56;;;17.57;59.64
63654;BME280;49809;47.418;19.080;2022-10-22T12:29:31;100499.84;;;17.62;60.08
63654;BME280;49809;47.418;19.080;2022-10-22T12:33:25;100490.63;;;17.36;59.71
63654;BME280;49809;47.418;19.080;2022-10-22T12:37:54;100496.41;;;17.06;60.83
63654;BME280;49809;47.418;19.080;2022-10-22T12:42:03;100489.53;;;17.00;60.78
63654;BME280;49809;47.418;19.080;2022-10-22T12:45:51;100486.06;;;16.80;61.44
63654;BME280;49809;47.418;19.080;2022-10-22T12:50:30;100489.00;;;16.60;62.63
63654;BME280;49809;47.418;19.080;2022-10-22T12:54:20;100488.84;;;16.46;62.68
63654;BME280;49809;47.418;19.080;2022-10-22T12:58:30;100502.16;;;16.28;63.48
63654;BME280;49809;47.418;19.080;2022-10-22T13:02:42;100499.25;;;16.24;63.98
63654;BME280;49809;47.418;19.080;2022-10-22T13:06:35;100490.56;;;16.14;64.72
63654;BME280;49809;47.418;19.080;2022-10-22T13:10:40;100501.13;;;16.00;65.84
63654;BME280;49809;47.418;19.080;2022-10-22T13:14:43;100499.28;;;15.95;66.12
63654;BME280;49809;47.418;19.080;2022-10-22T13:18:53;100509.75;;;15.92;66.19
63654;BME280;49809;47.418;19.080;2022-10-22T13:23:00;100504.63;;;15.95;66.02
63654;BME280;49809;47.418;19.080;2022-10-22T13:27:09;100494.84;;;15.86;65.49
63654;BME280;49809;47.418;19.080;2022-10-22T13:31:29;100498.59;;;15.85;66.02
63654;BME280;49809;47.418;19.080;2022-10-22T13:35:33;100496.66;;;15.90;66.13
63654;BME280;49809;47.418;19.080;2022-10-22T13:39:23;100496.34;;;15.97;66.42
63654;BME280;49809;47.418;19.080;2022-10-22T13:43:27;100496.56;;;16.00;66.40
63654;BME280;49809;47.418;19.080;2022-10-22T13:47:32;100494.97;;;15.99;66.38
63654;BME280;49809;47.418;19.080;2022-10-22T13:51:44;100500.88;;;15.96;66.69
63654;BME280;49809;47.418;19.080;2022-10-22T13:55:31;100508.94;;;15.91;67.22
63654;BME280;49809;47.418;19.080;2022-10-22T13:59:08;100509.03;;;15.81;68.06
63654;BME280;49809;47.418;19.080;2022-10-22T14:02:58;100511.22;;;15.74;68.32
63654;BME280;49809;47.418;19.080;2022-10-22T14:07:27;100505.47;;;15.62;68.91
63654;BME280;49809;47.418;19.080;2022-10-22T14:11:19;100510.31;;;15.55;70.11
63654;BME280;49809;47.418;19.080;2022-10-22T14:15:27;100507.75;;;15.35;70.97
63654;BME280;49809;47.418;19.080;2022-10-22T14:19:16;100519.59;;;15.18;72.10
63654;BME280;49809;47.418;19.080;2022-10-22T14:23:26;100513.28;;;15.53;71.25
63654;BME280;49809;47.418;19.080;2022-10-22T14:27:30;100521.59;;;15.42;71.88
63654;BME280;49809;47.418;19.080;2022-10-22T14:31:39;100524.78;;;15.44;72.61
63654;BME280;49809;47.418;19.080;2022-10-22T14:35:48;100518.66;;;15.43;72.64
63654;BME280;49809;47.418;19.080;2022-10-22T14:39:54;100492.50;;;15.40;71.80
63654;BME280;49809;47.418;19.080;2022-10-22T14:43:51;100505.44;;;15.23;72.98
63654;BME280;49809;47.418;19.080;2022-10-22T14:47:50;100509.50;;;15.10;73.14
63654;BME280;49809;47.418;19.080;2022-10-22T14:51:20;100506.56;;;15.12;73.65
63654;BME280;49809;47.418;19.080;2022-10-22T14:55:10;100517.28;;;15.02;73.94
63654;BME280;49809;47.418;19.080;2022-10-22T14:59:16;100517.31;;;14.97;74.40
63654;BME280;49809;47.418;19.080;2022-10-22T15:03:02;100526.72;;;14.84;74.82
63654;BME280;49809;47.418;19.080;2022-10-22T15:07:09;100539.25;;;14.78;75.41
63654;BME280;49809;47.418;19.080;2022-10-22T15:10:59;100526.75;;;14.74;75.57
63654;BME280;49809;47.418;19.080;2022-10-22T15:14:38;100525.72;;;14.70;75.68
63654;BME280;49809;47.418;19.080;2022-10-22T15:18:18;100523.03;;;14.75;75.50
63654;BME280;49809;47.418;19.080;2022-10-22T15:21:56;100523.91;;;14.55;76.28
63654;BME280;49809;47.418;19.080;2022-10-22T15:29:28;100522.03;;;14.56;76.62
63654;BME280;49809;47.418;19.080;2022-10-22T15:33:16;100536.69;;;14.48;77.78
63654;BME280;49809;47.418;19.080;2022-10-22T15:36:57;100540.47;;;14.37;77.62
63654;BME280;49809;47.418;19.080;2022-10-22T15:41:00;100540.16;;;14.33;77.54
63654;BME280;49809;47.418;19.080;2022-10-22T15:44:28;100544.16;;;14.31;77.94
63654;BME280;49809;47.418;19.080;2022-10-22T15:48:41;100536.44;;;14.24;78.61
63654;BME280;49809;47.418;19.080;2022-10-22T15:56:34;100555.41;;;13.92;84.55
63654;BME280;49809;47.418;19.080;2022-10-22T16:00:45;100560.97;;;13.71;87.82
63654;BME280;49809;47.418;19.080;2022-10-22T16:04:54;100562.25;;;13.38;91.72
63654;BME280;49809;47.418;19.080;2022-10-22T16:08:38;100572.28;;;13.11;93.68
63654;BME280;49809;47.418;19.080;2022-10-22T16:12:46;100577.78;;;12.99;96.45
63654;BME280;49809;47.418;19.080;2022-10-22T16:16:19;100594.22;;;12.86;99.49
63654;BME280;49809;47.418;19.080;2022-10-22T16:19:54;100602.69;;;12.78;100.00
63654;BME280;49809;47.418;19.080;2022-10-22T16:23:21;100606.87;;;12.69;100.00
63654;BME280;49809;47.418;19.080;2022-10-22T16:27:11;100610.28;;;12.64;100.00
63654;BME280;49809;47.418;19.080;2022-10-22T16:30:47;100620.06;;;12.53;100.00
63654;BME280;49809;47.418;19.080;2022-10-22T16:38:08;100641.75;;;12.40;100.00
63654;BME280;49809;47.418;19.080;2022-10-22T16:42:05;100655.28;;;12.39;100.00
63654;BME280;49809;47.418;19.080;2022-10-22T16:46:05;100673.47;;;12.25;100.00
63654;BME280;49809;47.418;19.080;2022-10-22T16:49:49;100677.06;;;12.09;100.00
63654;BME280;49809;47.418;19.080;2022-10-22T16:53:29;100681.47;;;11.98;100.00
63654;BME280;49809;47.418;19.080;2022-10-22T17:05:52;100695.84;;;11.75;100.00
63654;BME280;49809;47.418;19.080;2022-10-22T17:09:34;100695.69;;;11.65;100.00
63654;BME280;49809;47.418;19.080;2022-10-22T17:13:14;100690.22;;;11.50;100.00
63654;BME280;49809;47.418;19.080;2022-10-22T17:21:22;100697.84;;;11.25;100.00
63654;BME280;49809;47.418;19.080;2022-10-22T17:25:16;100684.53;;;11.20;100.00
63654;BME280;49809;47.418;19.080;2022-10-22T17:28:54;100672.81;;;11.16;100.00
63654;BME280;49809;47.418;19.080;2022-10-22T17:36:29;100696.75;;;11.04;100.00
63654;BME280;49809;47.418;19.080;2022-10-22T17:40:07;100701.22;;;10.99;100.00
63654;BME280;49809;47.418;19.080;2022-10-22T17:43:44;100706.28;;;10.83;100.00
63654;BME280;49809;47.418;19.080;2022-10-22T17:51:11;100702.44;;;10.74;100.00
63654;BME280;49809;47.418;19.080;2022-10-22T17:54:52;100706.12;;;10.73;100.00
63654;BME280;49809;47.418;19.080;2022-10-22T18:02:34;100721.44;;;10.71;100.00
63654;BME280;49809;47.418;19.080;2022-10-22T18:06:17;100708.69;;;10.68;100.00
63654;BME280;49809;47.418;19.080;2022-10-22T18:09:50;100723.47;;;10.64;100.00
63654;BME280;49809;47.418;19.080;2022-10-22T18:13:39;100736.13;;;10.62;100.00
63654;BME280;49809;47.418;19.080;2022-10-22T18:17:24;100735.91;;;10.64;100.00
63654;BME280;49809;47.418;19.080;2022-10-22T18:20:58;100734.53;;;10.61;100.00
63654;BME280;49809;47.418;19.080;2022-10-22T18:24:37;100752.31;;;10.66;100.00
63654;BME280;49809;47.418;19.080;2022-10-22T18:28:19;100742.31;;;10.68;100.00
63654;BME280;49809;47.418;19.080;2022-10-22T18:32:00;100727.31;;;10.73;100.00
63654;BME280;49809;47.418;19.080;2022-10-22T18:35:51;100749.44;;;10.67;100.00
63654;BME280;49809;47.418;19.080;2022-10-22T18:39:20;100749.94;;;10.64;100.00
63654;BME280;49809;47.418;19.080;2022-10-22T18:43:08;100761.16;;;10.71;100.00
63654;BME280;49809;47.418;19.080;2022-10-22T18:46:42;100767.41;;;10.65;100.00
63654;BME280;49809;47.418;19.080;2022-10-22T18:50:19;100775.75;;;10.57;100.00
63654;BME280;49809;47.418;19.080;2022-10-22T18:54:10;100775.75;;;10.57;100.00
63654;BME280;49809;47.418;19.080;2022-10-22T18:57:54;100763.41;;;10.63;100.00
63654;BME280;49809;47.418;19.080;2022-10-22T19:01:31;100775.75;;;10.57;100.00
63654;BME280;49809;47.418;19.080;2022-10-22T19:04:58;100777.38;;;10.58;100.00
63654;BME280;49809;47.418;19.080;2022-10-22T19:08:34;100769.91;;;10.55;100.00
63654;BME280;49809;47.418;19.080;2022-10-22T19:12:10;100758.75;;;10.53;100.00
63654;BME280;49809;47.418;19.080;2022-10-22T19:20:17;100766.91;;;10.35;100.00
63654;BME280;49809;47.418;19.080;2022-10-22T19:24:00;100756.16;;;10.25;100.00
63654;BME280;49809;47.418;19.080;2022-10-22T19:27:34;100771.22;;;10.13;100.00
63654;BME280;49809;47.418;19.080;2022-10-22T19:31:22;100783.94;;;9.99;100.00
63654;BME280;49809;47.418;19.080;2022-10-22T19:35:05;100789.53;;;10.02;100.00
63654;BME280;49809;47.418;19.080;2022-10-22T19:38:56;100799.91;;;9.92;100.00
63654;BME280;49809;47.418;19.080;2022-10-22T19:42:32;100805.09;;;9.99;100.00
63654;BME280;49809;47.418;19.080;2022-10-22T19:46:34;100802.94;;;9.84;100.00
63654;BME280;49809;47.418;19.080;2022-10-22T19:50:18;100799.66;;;9.77;100.00
63654;BME280;49809;47.418;19.080;2022-10-22T19:57:56;100812.66;;;9.67;100.00
63654;BME280;49809;47.418;19.080;2022-10-22T20:02:01;100812.50;;;9.74;100.00
63654;BME280;49809;47.418;19.080;2022-10-22T20:05:37;100812.84;;;9.77;100.00
63654;BME280;49809;47.418;19.080;2022-10-22T20:09:12;100818.59;;;9.74;100.00
63654;BME280;49809;47.418;19.080;2022-10-22T20:13:06;100828.28;;;9.57;100.00
63654;BME280;49809;47.418;19.080;2022-10-22T20:16:50;100836.78;;;9.59;100.00
63654;BME280;49809;47.418;19.080;2022-10-22T20:20:23;100839.88;;;9.68;100.00
63654;BME280;49809;47.418;19.080;2022-10-22T20:24:23;100853.53;;;9.76;100.00
63654;BME280;49809;47.418;19.080;2022-10-22T20:52:16;100852.25;;;9.79;100.00
63654;BME280;49809;47.418;19.080;2022-10-22T20:56:00;100852.03;;;9.80;100.00
63654;BME280;49809;47.418;19.080;2022-10-22T21:00:09;100865.47;;;9.79;100.00
63654;BME280;49809;47.418;19.080;2022-10-22T21:03:48;100869.53;;;9.70;100.00
63654;BME280;49809;47.418;19.080;2022-10-22T21:11:24;100864.81;;;9.60;100.00
63654;BME280;49809;47.418;19.080;2022-10-22T21:15:32;100867.00;;;9.63;100.00
63654;BME280;49809;47.418;19.080;2022-10-22T21:19:42;100868.25;;;9.49;100.00
63654;BME280;49809;47.418;19.080;2022-10-22T21:28:38;100884.91;;;9.26;100.00
63654;BME280;49809;47.418;19.080;2022-10-22T21:36:35;100875.13;;;9.03;100.00
63654;BME280;49809;47.418;19.080;2022-10-22T21:44:24;100882.19;;;8.91;100.00
63654;BME280;49809;47.418;19.080;2022-10-22T22:12:36;100876.50;;;8.64;100.00
63654;BME280;49809;47.418;19.080;2022-10-22T22:24:21;100885.44;;;8.63;100.00
63654;BME280;49809;47.418;19.080;2022-10-22T22:35:41;100897.41;;;8.66;100.00
63654;BME280;49809;47.418;19.080;2022-10-22T22:51:17;100918.16;;;8.44;100.00
63654;BME280;49809;47.418;19.080;2022-10-22T22:59:33;100919.13;;;8.32;100.00
